sensor_id;sensor_type;location;lat;lon;timestamp;temperature;humidity
45008;DHT22;30743;52.008;5.644;2024-01-10T00:01:18;5.00;85.60
45008;DHT22;30743;52.008;5.644;2024-01-10T00:03:44;5.10;86.10
45008;DHT22;30743;52.008;5.644;2024-01-10T00:06:10;5.00;85.80
45008;DHT22;30743;52.008;5.644;2024-01-10T00:08:36;5.00;86.00
45008;DHT22;30743;52.008;5.644;2024-01-10T00:11:01;5.10;86.90
45008;DHT22;30743;52.008;5.644;2024-01-10T00:13:27;5.00;87.20
45008;DHT22;30743;52.008;5.644;2024-01-10T00:15:53;4.90;86.50
45008;DHT22;30743;52.008;5.644;2024-01-10T00:18:21;5.00;86.70
45008;DHT22;30743;52.008;5.644;2024-01-10T00:20:46;5.10;86.90
45008;DHT22;30743;52.008;5.644;2024-01-10T00:23:12;5.10;86.90
45008;DHT22;30743;52.008;5.644;2024-01-10T00:25:38;5.10;87.20
45008;DHT22;30743;52.008;5.644;2024-01-10T00:28:05;5.20;87.10
45008;DHT22;30743;52.008;5.644;2024-01-10T00:30:30;5.30;86.80
45008;DHT22;30743;52.008;5.644;2024-01-10T00:32:56;5.20;86.60
45008;DHT22;30743;52.008;5.644;2024-01-10T00:35:22;5.30;86.60
45008;DHT22;30743;52.008;5.644;2024-01-10T00:37:47;5.30;86.50
45008;DHT22;30743;52.008;5.644;2024-01-10T00:40:13;5.40;86.60
45008;DHT22;30743;52.008;5.644;2024-01-10T00:42:38;5.40;86.50
45008;DHT22;30743;52.008;5.644;2024-01-10T00:45:04;5.40;86.30
45008;DHT22;30743;52.008;5.644;2024-01-10T00:47:30;5.40;86.40
45008;DHT22;30743;52.008;5.644;2024-01-10T00:49:56;5.40;86.30
45008;DHT22;30743;52.008;5.644;2024-01-10T00:52:21;5.50;86.50
45008;DHT22;30743;52.008;5.644;2024-01-10T00:54:47;5.50;86.60
45008;DHT22;30743;52.008;5.644;2024-01-10T00:57:13;5.40;86.50
45008;DHT22;30743;52.008;5.644;2024-01-10T00:59:40;5.50;86.70
45008;DHT22;30743;52.008;5.644;2024-01-10T01:02:06;5.40;86.60
45008;DHT22;30743;52.008;5.644;2024-01-10T01:04:31;5.40;86.90
45008;DHT22;30743;52.008;5.644;2024-01-10T01:06:57;5.50;87.00
45008;DHT22;30743;52.008;5.644;2024-01-10T01:09:22;5.50;87.10
45008;DHT22;30743;52.008;5.644;2024-01-10T01:11:48;7.00;88.20
45008;DHT22;30743;52.008;5.644;2024-01-10T01:14:14;5.40;87.30
45008;DHT22;30743;52.008;5.644;2024-01-10T01:16:39;5.50;88.20
45008;DHT22;30743;52.008;5.644;2024-01-10T01:19:05;5.40;87.60
45008;DHT22;30743;52.008;5.644;2024-01-10T01:21:30;5.40;87.80
45008;DHT22;30743;52.008;5.644;2024-01-10T01:23:56;5.40;88.10
45008;DHT22;30743;52.008;5.644;2024-01-10T01:26:21;5.30;88.90
45008;DHT22;30743;52.008;5.644;2024-01-10T01:28:47;5.30;89.30
45008;DHT22;30743;52.008;5.644;2024-01-10T01:31:13;5.20;89.00
45008;DHT22;30743;52.008;5.644;2024-01-10T01:33:38;5.20;89.30
45008;DHT22;30743;52.008;5.644;2024-01-10T01:36:05;5.20;89.60
45008;DHT22;30743;52.008;5.644;2024-01-10T01:38:31;5.10;89.10
45008;DHT22;30743;52.008;5.644;2024-01-10T01:40:57;5.00;89.50
45008;DHT22;30743;52.008;5.644;2024-01-10T01:43:23;5.00;89.70
45008;DHT22;30743;52.008;5.644;2024-01-10T01:45:52;4.90;89.40
45008;DHT22;30743;52.008;5.644;2024-01-10T01:48:19;4.90;90.00
45008;DHT22;30743;52.008;5.644;2024-01-10T01:50:46;4.80;89.90
45008;DHT22;30743;52.008;5.644;2024-01-10T01:53:15;4.70;90.10
45008;DHT22;30743;52.008;5.644;2024-01-10T01:55:45;4.80;90.20
45008;DHT22;30743;52.008;5.644;2024-01-10T01:58:11;4.80;90.20
45008;DHT22;30743;52.008;5.644;2024-01-10T02:00:40;4.60;90.50
45008;DHT22;30743;52.008;5.644;2024-01-10T02:03:07;4.70;90.40
45008;DHT22;30743;52.008;5.644;2024-01-10T02:05:34;4.60;90.30
45008;DHT22;30743;52.008;5.644;2024-01-10T02:07:59;4.70;90.30
45008;DHT22;30743;52.008;5.644;2024-01-10T02:10:25;4.70;90.30
45008;DHT22;30743;52.008;5.644;2024-01-10T02:12:51;4.70;90.30
45008;DHT22;30743;52.008;5.644;2024-01-10T02:15:16;4.80;90.30
45008;DHT22;30743;52.008;5.644;2024-01-10T02:17:43;4.80;90.20
45008;DHT22;30743;52.008;5.644;2024-01-10T02:20:13;4.80;90.20
45008;DHT22;30743;52.008;5.644;2024-01-10T02:22:39;4.90;90.20
45008;DHT22;30743;52.008;5.644;2024-01-10T02:25:09;4.90;90.10
45008;DHT22;30743;52.008;5.644;2024-01-10T02:27:38;5.00;90.10
45008;DHT22;30743;52.008;5.644;2024-01-10T02:30:05;5.00;90.10
45008;DHT22;30743;52.008;5.644;2024-01-10T02:32:31;5.00;90.20
45008;DHT22;30743;52.008;5.644;2024-01-10T02:34:57;5.00;90.20
45008;DHT22;30743;52.008;5.644;2024-01-10T02:37:23;5.00;90.10
45008;DHT22;30743;52.008;5.644;2024-01-10T02:39:49;4.40;90.10
45008;DHT22;30743;52.008;5.644;2024-01-10T02:42:14;5.10;90.30
45008;DHT22;30743;52.008;5.644;2024-01-10T02:44:40;5.10;90.20
45008;DHT22;30743;52.008;5.644;2024-01-10T02:47:06;5.10;90.20
45008;DHT22;30743;52.008;5.644;2024-01-10T02:49:32;5.10;90.20
45008;DHT22;30743;52.008;5.644;2024-01-10T02:51:58;5.10;90.20
45008;DHT22;30743;52.008;5.644;2024-01-10T02:54:24;5.10;90.10
45008;DHT22;30743;52.008;5.644;2024-01-10T02:56:49;5.10;90.10
45008;DHT22;30743;52.008;5.644;2024-01-10T02:59:15;5.10;90.10
45008;DHT22;30743;52.008;5.644;2024-01-10T03:01:40;5.10;90.20
45008;DHT22;30743;52.008;5.644;2024-01-10T03:04:06;5.20;90.20
45008;DHT22;30743;52.008;5.644;2024-01-10T03:06:31;5.20;90.30
45008;DHT22;30743;52.008;5.644;2024-01-10T03:08:57;5.20;90.20
45008;DHT22;30743;52.008;5.644;2024-01-10T03:11:23;5.20;90.10
45008;DHT22;30743;52.008;5.644;2024-01-10T03:13:52;5.20;90.20
45008;DHT22;30743;52.008;5.644;2024-01-10T03:16:17;5.20;90.20
45008;DHT22;30743;52.008;5.644;2024-01-10T03:18:44;5.20;90.20
45008;DHT22;30743;52.008;5.644;2024-01-10T03:21:09;5.20;90.20
45008;DHT22;30743;52.008;5.644;2024-01-10T03:23:35;5.20;90.30
45008;DHT22;30743;52.008;5.644;2024-01-10T03:26:00;5.10;90.20
45008;DHT22;30743;52.008;5.644;2024-01-10T03:28:26;5.10;90.30
45008;DHT22;30743;52.008;5.644;2024-01-10T03:30:51;5.10;90.40
45008;DHT22;30743;52.008;5.644;2024-01-10T03:33:17;5.00;90.30
45008;DHT22;30743;52.008;5.644;2024-01-10T03:35:43;5.10;90.40
45008;DHT22;30743;52.008;5.644;2024-01-10T03:38:09;5.00;90.40
45008;DHT22;30743;52.008;5.644;2024-01-10T03:40:34;5.00;90.60
45008;DHT22;30743;52.008;5.644;2024-01-10T03:43:00;4.90;90.50
45008;DHT22;30743;52.008;5.644;2024-01-10T03:45:26;4.90;90.80
45008;DHT22;30743;52.008;5.644;2024-01-10T03:47:51;4.90;91.00
45008;DHT22;30743;52.008;5.644;2024-01-10T03:50:20;4.90;91.00
45008;DHT22;30743;52.008;5.644;2024-01-10T03:52:46;4.90;91.10
45008;DHT22;30743;52.008;5.644;2024-01-10T03:55:13;4.80;91.00
45008;DHT22;30743;52.008;5.644;2024-01-10T03:57:42;4.80;91.00
45008;DHT22;30743;52.008;5.644;2024-01-10T04:00:08;4.90;91.10
45008;DHT22;30743;52.008;5.644;2024-01-10T04:02:35;4.90;91.00
45008;DHT22;30743;52.008;5.644;2024-01-10T04:05:01;4.80;90.90
45008;DHT22;30743;52.008;5.644;2024-01-10T04:07:27;4.80;90.90
45008;DHT22;30743;52.008;5.644;2024-01-10T04:09:53;4.80;90.90
45008;DHT22;30743;52.008;5.644;2024-01-10T04:12:19;4.80;91.10
45008;DHT22;30743;52.008;5.644;2024-01-10T04:14:44;4.90;91.00
45008;DHT22;30743;52.008;5.644;2024-01-10T04:17:10;4.90;91.00
45008;DHT22;30743;52.008;5.644;2024-01-10T04:19:36;4.90;91.00
45008;DHT22;30743;52.008;5.644;2024-01-10T04:22:01;4.70;90.90
45008;DHT22;30743;52.008;5.644;2024-01-10T04:24:27;4.80;91.10
45008;DHT22;30743;52.008;5.644;2024-01-10T04:26:52;5.10;91.20
45008;DHT22;30743;52.008;5.644;2024-01-10T04:29:18;4.70;91.10
45008;DHT22;30743;52.008;5.644;2024-01-10T04:31:43;4.70;91.10
45008;DHT22;30743;52.008;5.644;2024-01-10T04:34:09;4.60;91.10
45008;DHT22;30743;52.008;5.644;2024-01-10T04:36:35;4.70;91.10
45008;DHT22;30743;52.008;5.644;2024-01-10T04:39:00;4.60;91.20
45008;DHT22;30743;52.008;5.644;2024-01-10T04:41:26;4.50;91.20
45008;DHT22;30743;52.008;5.644;2024-01-10T04:43:52;4.50;91.50
45008;DHT22;30743;52.008;5.644;2024-01-10T04:46:17;4.40;91.40
45008;DHT22;30743;52.008;5.644;2024-01-10T04:48:43;4.40;91.70
45008;DHT22;30743;52.008;5.644;2024-01-10T04:51:08;4.30;91.60
45008;DHT22;30743;52.008;5.644;2024-01-10T04:53:34;4.30;91.80
45008;DHT22;30743;52.008;5.644;2024-01-10T04:56:00;4.30;91.80
45008;DHT22;30743;52.008;5.644;2024-01-10T04:58:26;4.40;91.90
45008;DHT22;30743;52.008;5.644;2024-01-10T05:00:51;4.30;91.70
45008;DHT22;30743;52.008;5.644;2024-01-10T05:03:17;4.30;91.70
45008;DHT22;30743;52.008;5.644;2024-01-10T05:05:42;4.30;92.10
45008;DHT22;30743;52.008;5.644;2024-01-10T05:08:08;4.30;91.70
45008;DHT22;30743;52.008;5.644;2024-01-10T05:10:34;5.40;92.00
45008;DHT22;30743;52.008;5.644;2024-01-10T05:12:59;4.40;91.70
45008;DHT22;30743;52.008;5.644;2024-01-10T05:15:25;4.40;91.70
45008;DHT22;30743;52.008;5.644;2024-01-10T05:17:50;4.20;91.60
45008;DHT22;30743;52.008;5.644;2024-01-10T05:20:16;4.20;91.70
45008;DHT22;30743;52.008;5.644;2024-01-10T05:22:42;4.20;91.70
45008;DHT22;30743;52.008;5.644;2024-01-10T05:25:08;4.10;91.70
45008;DHT22;30743;52.008;5.644;2024-01-10T05:27:33;4.10;91.70
45008;DHT22;30743;52.008;5.644;2024-01-10T05:29:59;4.20;91.80
45008;DHT22;30743;52.008;5.644;2024-01-10T05:32:25;4.20;91.80
45008;DHT22;30743;52.008;5.644;2024-01-10T05:34:52;4.20;91.70
45008;DHT22;30743;52.008;5.644;2024-01-10T05:37:18;4.20;91.80
45008;DHT22;30743;52.008;5.644;2024-01-10T05:39:43;4.20;91.90
45008;DHT22;30743;52.008;5.644;2024-01-10T05:42:09;4.20;91.80
45008;DHT22;30743;52.008;5.644;2024-01-10T05:44:34;5.70;92.20
45008;DHT22;30743;52.008;5.644;2024-01-10T05:47:00;4.20;91.60
45008;DHT22;30743;52.008;5.644;2024-01-10T05:49:26;4.20;91.80
45008;DHT22;30743;52.008;5.644;2024-01-10T05:51:52;4.30;91.80
45008;DHT22;30743;52.008;5.644;2024-01-10T05:54:17;4.30;91.80
45008;DHT22;30743;52.008;5.644;2024-01-10T05:56:45;4.40;91.80
45008;DHT22;30743;52.008;5.644;2024-01-10T05:59:11;4.30;91.70
45008;DHT22;30743;52.008;5.644;2024-01-10T06:01:37;4.40;91.70
45008;DHT22;30743;52.008;5.644;2024-01-10T06:04:05;4.40;91.70
45008;DHT22;30743;52.008;5.644;2024-01-10T06:06:31;4.40;91.70
45008;DHT22;30743;52.008;5.644;2024-01-10T06:08:57;4.40;91.70
45008;DHT22;30743;52.008;5.644;2024-01-10T06:11:23;4.30;91.70
45008;DHT22;30743;52.008;5.644;2024-01-10T06:13:49;4.40;91.80
45008;DHT22;30743;52.008;5.644;2024-01-10T06:16:14;4.40;91.90
45008;DHT22;30743;52.008;5.644;2024-01-10T06:18:40;4.30;91.80
45008;DHT22;30743;52.008;5.644;2024-01-10T06:21:05;4.30;91.80
45008;DHT22;30743;52.008;5.644;2024-01-10T06:23:31;4.30;91.90
45008;DHT22;30743;52.008;5.644;2024-01-10T06:25:56;4.40;91.90
45008;DHT22;30743;52.008;5.644;2024-01-10T06:28:22;4.40;91.90
45008;DHT22;30743;52.008;5.644;2024-01-10T06:30:49;4.40;92.10
45008;DHT22;30743;52.008;5.644;2024-01-10T06:33:15;4.40;92.10
45008;DHT22;30743;52.008;5.644;2024-01-10T06:35:41;4.40;92.20
45008;DHT22;30743;52.008;5.644;2024-01-10T06:38:09;4.40;92.20
45008;DHT22;30743;52.008;5.644;2024-01-10T06:40:34;4.40;92.20
45008;DHT22;30743;52.008;5.644;2024-01-10T06:43:00;4.50;92.30
45008;DHT22;30743;52.008;5.644;2024-01-10T06:45:26;4.50;92.30
45008;DHT22;30743;52.008;5.644;2024-01-10T06:47:52;4.50;92.30
45008;DHT22;30743;52.008;5.644;2024-01-10T06:50:17;4.40;92.50
45008;DHT22;30743;52.008;5.644;2024-01-10T06:52:45;4.40;92.30
45008;DHT22;30743;52.008;5.644;2024-01-10T06:55:10;4.40;92.30
45008;DHT22;30743;52.008;5.644;2024-01-10T06:57:36;4.50;92.40
45008;DHT22;30743;52.008;5.644;2024-01-10T07:00:03;4.50;92.30
45008;DHT22;30743;52.008;5.644;2024-01-10T07:02:32;4.50;92.30
45008;DHT22;30743;52.008;5.644;2024-01-10T07:04:58;4.50;92.20
45008;DHT22;30743;52.008;5.644;2024-01-10T07:07:23;4.50;92.20
45008;DHT22;30743;52.008;5.644;2024-01-10T07:09:49;4.50;92.10
45008;DHT22;30743;52.008;5.644;2024-01-10T07:12:14;4.50;92.00
45008;DHT22;30743;52.008;5.644;2024-01-10T07:14:40;4.50;91.90
45008;DHT22;30743;52.008;5.644;2024-01-10T07:17:06;4.60;92.10
45008;DHT22;30743;52.008;5.644;2024-01-10T07:19:32;4.60;92.40
45008;DHT22;30743;52.008;5.644;2024-01-10T07:21:57;4.60;91.90
45008;DHT22;30743;52.008;5.644;2024-01-10T07:24:23;4.60;91.80
45008;DHT22;30743;52.008;5.644;2024-01-10T07:26:49;4.60;91.70
45008;DHT22;30743;52.008;5.644;2024-01-10T07:29:14;4.60;91.60
45008;DHT22;30743;52.008;5.644;2024-01-10T07:31:40;4.60;91.60
45008;DHT22;30743;52.008;5.644;2024-01-10T07:34:06;4.60;91.50
45008;DHT22;30743;52.008;5.644;2024-01-10T07:36:33;4.60;91.60
45008;DHT22;30743;52.008;5.644;2024-01-10T07:39:02;4.70;91.60
45008;DHT22;30743;52.008;5.644;2024-01-10T07:41:27;4.70;91.60
45008;DHT22;30743;52.008;5.644;2024-01-10T07:43:53;4.70;91.50
45008;DHT22;30743;52.008;5.644;2024-01-10T07:46:19;4.80;91.40
45008;DHT22;30743;52.008;5.644;2024-01-10T07:48:44;4.70;91.50
45008;DHT22;30743;52.008;5.644;2024-01-10T07:51:10;4.80;91.40
45008;DHT22;30743;52.008;5.644;2024-01-10T07:53:36;4.80;91.40
45008;DHT22;30743;52.008;5.644;2024-01-10T07:56:02;4.70;91.20
45008;DHT22;30743;52.008;5.644;2024-01-10T07:58:27;4.80;91.30
45008;DHT22;30743;52.008;5.644;2024-01-10T08:00:53;4.80;91.30
45008;DHT22;30743;52.008;5.644;2024-01-10T08:03:19;4.80;91.20
45008;DHT22;30743;52.008;5.644;2024-01-10T08:05:45;4.80;91.20
45008;DHT22;30743;52.008;5.644;2024-01-10T08:08:11;4.90;91.00
45008;DHT22;30743;52.008;5.644;2024-01-10T08:10:39;4.90;91.10
45008;DHT22;30743;52.008;5.644;2024-01-10T08:13:05;5.00;91.10
45008;DHT22;30743;52.008;5.644;2024-01-10T08:15:31;5.00;91.20
45008;DHT22;30743;52.008;5.644;2024-01-10T08:18:00;5.00;91.20
45008;DHT22;30743;52.008;5.644;2024-01-10T08:20:28;5.00;91.30
45008;DHT22;30743;52.008;5.644;2024-01-10T08:22:54;5.00;91.30
45008;DHT22;30743;52.008;5.644;2024-01-10T08:25:19;5.10;91.20
45008;DHT22;30743;52.008;5.644;2024-01-10T08:27:45;5.10;91.10
45008;DHT22;30743;52.008;5.644;2024-01-10T08:30:11;5.20;91.00
45008;DHT22;30743;52.008;5.644;2024-01-10T08:32:37;5.30;91.10
45008;DHT22;30743;52.008;5.644;2024-01-10T08:35:03;3.80;90.60
45008;DHT22;30743;52.008;5.644;2024-01-10T08:37:30;5.40;90.90
45008;DHT22;30743;52.008;5.644;2024-01-10T08:39:56;5.50;90.80
45008;DHT22;30743;52.008;5.644;2024-01-10T08:42:22;5.60;90.50
45008;DHT22;30743;52.008;5.644;2024-01-10T08:44:47;5.60;90.40
45008;DHT22;30743;52.008;5.644;2024-01-10T08:47:13;5.70;90.30
45008;DHT22;30743;52.008;5.644;2024-01-10T08:49:39;5.70;90.10
45008;DHT22;30743;52.008;5.644;2024-01-10T08:52:05;5.80;90.10
45008;DHT22;30743;52.008;5.644;2024-01-10T08:54:30;5.90;90.10
45008;DHT22;30743;52.008;5.644;2024-01-10T08:56:56;6.00;89.90
45008;DHT22;30743;52.008;5.644;2024-01-10T08:59:22;6.10;89.50
45008;DHT22;30743;52.008;5.644;2024-01-10T09:01:47;6.20;88.90
45008;DHT22;30743;52.008;5.644;2024-01-10T09:04:13;6.00;88.30
45008;DHT22;30743;52.008;5.644;2024-01-10T09:06:38;5.90;87.90
45008;DHT22;30743;52.008;5.644;2024-01-10T09:09:04;6.00;89.20
45008;DHT22;30743;52.008;5.644;2024-01-10T09:11:30;5.80;88.90
45008;DHT22;30743;52.008;5.644;2024-01-10T09:13:56;5.50;87.90
45008;DHT22;30743;52.008;5.644;2024-01-10T09:16:22;5.30;88.90
45008;DHT22;30743;52.008;5.644;2024-01-10T09:18:48;5.20;89.40
45008;DHT22;30743;52.008;5.644;2024-01-10T09:21:18;5.50;89.60
45008;DHT22;30743;52.008;5.644;2024-01-10T09:23:44;6.00;89.20
45008;DHT22;30743;52.008;5.644;2024-01-10T09:26:09;6.30;88.30
45008;DHT22;30743;52.008;5.644;2024-01-10T09:28:35;7.00;87.20
45008;DHT22;30743;52.008;5.644;2024-01-10T09:31:01;7.80;85.40
45008;DHT22;30743;52.008;5.644;2024-01-10T09:33:26;8.60;83.70
45008;DHT22;30743;52.008;5.644;2024-01-10T09:35:52;9.20;81.10
45008;DHT22;30743;52.008;5.644;2024-01-10T09:38:18;9.40;79.70
45008;DHT22;30743;52.008;5.644;2024-01-10T09:40:43;10.00;79.40
45008;DHT22;30743;52.008;5.644;2024-01-10T09:43:09;10.70;78.50
45008;DHT22;30743;52.008;5.644;2024-01-10T09:45:35;11.00;77.10
45008;DHT22;30743;52.008;5.644;2024-01-10T09:48:02;11.10;76.50
45008;DHT22;30743;52.008;5.644;2024-01-10T09:50:28;11.00;75.80
45008;DHT22;30743;52.008;5.644;2024-01-10T09:53:04;11.80;76.90
45008;DHT22;30743;52.008;5.644;2024-01-10T09:55:36;12.30;76.00
45008;DHT22;30743;52.008;5.644;2024-01-10T09:58:06;13.30;75.00
45008;DHT22;30743;52.008;5.644;2024-01-10T10:00:34;14.10;73.50
45008;DHT22;30743;52.008;5.644;2024-01-10T10:03:04;15.10;72.10
45008;DHT22;30743;52.008;5.644;2024-01-10T10:05:32;15.20;70.50
45008;DHT22;30743;52.008;5.644;2024-01-10T10:07:59;15.90;71.60
45008;DHT22;30743;52.008;5.644;2024-01-10T10:10:25;17.60;70.20
45008;DHT22;30743;52.008;5.644;2024-01-10T10:12:53;18.40;68.60
45008;DHT22;30743;52.008;5.644;2024-01-10T10:15:21;17.80;64.20
45008;DHT22;30743;52.008;5.644;2024-01-10T10:17:49;17.70;64.70
45008;DHT22;30743;52.008;5.644;2024-01-10T10:20:33;17.00;65.60
45008;DHT22;30743;52.008;5.644;2024-01-10T10:23:07;18.50;64.10
45008;DHT22;30743;52.008;5.644;2024-01-10T10:25:43;17.00;62.50
45008;DHT22;30743;52.008;5.644;2024-01-10T10:28:09;17.50;64.70
45008;DHT22;30743;52.008;5.644;2024-01-10T10:30:34;18.50;64.10
45008;DHT22;30743;52.008;5.644;2024-01-10T10:33:01;19.20;61.90
45008;DHT22;30743;52.008;5.644;2024-01-10T10:35:27;19.40;59.20
45008;DHT22;30743;52.008;5.644;2024-01-10T10:37:53;19.30;59.60
45008;DHT22;30743;52.008;5.644;2024-01-10T10:40:20;19.60;60.00
45008;DHT22;30743;52.008;5.644;2024-01-10T10:42:48;19.30;59.00
45008;DHT22;30743;52.008;5.644;2024-01-10T10:45:16;19.70;59.60
45008;DHT22;30743;52.008;5.644;2024-01-10T10:47:49;19.80;57.80
45008;DHT22;30743;52.008;5.644;2024-01-10T10:50:27;19.80;58.00
45008;DHT22;30743;52.008;5.644;2024-01-10T10:52:55;19.50;56.50
45008;DHT22;30743;52.008;5.644;2024-01-10T10:55:22;19.60;57.10
45008;DHT22;30743;52.008;5.644;2024-01-10T10:57:49;19.00;56.90
45008;DHT22;30743;52.008;5.644;2024-01-10T11:00:18;19.50;57.70
45008;DHT22;30743;52.008;5.644;2024-01-10T11:02:45;19.60;56.60
45008;DHT22;30743;52.008;5.644;2024-01-10T11:05:12;19.30;56.20
45008;DHT22;30743;52.008;5.644;2024-01-10T11:07:42;19.10;57.20
45008;DHT22;30743;52.008;5.644;2024-01-10T11:10:13;19.50;57.00
45008;DHT22;30743;52.008;5.644;2024-01-10T11:22:13;20.90;53.90
45008;DHT22;30743;52.008;5.644;2024-01-10T11:24:42;19.70;54.10
45008;DHT22;30743;52.008;5.644;2024-01-10T11:27:11;18.80;55.00
45008;DHT22;30743;52.008;5.644;2024-01-10T11:29:38;18.20;56.00
45008;DHT22;30743;52.008;5.644;2024-01-10T11:32:16;17.60;55.60
45008;DHT22;30743;52.008;5.644;2024-01-10T11:37:19;17.80;56.00
45008;DHT22;30743;52.008;5.644;2024-01-10T11:39:45;17.50;56.00
45008;DHT22;30743;52.008;5.644;2024-01-10T11:42:10;16.70;56.70
45008;DHT22;30743;52.008;5.644;2024-01-10T11:44:49;17.30;57.50
45008;DHT22;30743;52.008;5.644;2024-01-10T11:47:15;17.50;56.60
45008;DHT22;30743;52.008;5.644;2024-01-10T11:49:41;18.10;56.40
45008;DHT22;30743;52.008;5.644;2024-01-10T11:52:21;19.00;56.40
45008;DHT22;30743;52.008;5.644;2024-01-10T11:54:47;20.00;56.00
45008;DHT22;30743;52.008;5.644;2024-01-10T11:59:42;21.50;53.40
45008;DHT22;30743;52.008;5.644;2024-01-10T12:02:08;22.30;54.50
45008;DHT22;30743;52.008;5.644;2024-01-10T12:04:34;23.10;52.90
45008;DHT22;30743;52.008;5.644;2024-01-10T12:07:02;23.80;52.60
45008;DHT22;30743;52.008;5.644;2024-01-10T12:09:28;24.30;51.50
45008;DHT22;30743;52.008;5.644;2024-01-10T12:11:54;24.50;50.60
45008;DHT22;30743;52.008;5.644;2024-01-10T12:14:20;24.30;50.50
45008;DHT22;30743;52.008;5.644;2024-01-10T12:16:46;24.40;50.30
45008;DHT22;30743;52.008;5.644;2024-01-10T12:19:12;23.80;48.90
45008;DHT22;30743;52.008;5.644;2024-01-10T12:21:39;23.70;49.50
45008;DHT22;30743;52.008;5.644;2024-01-10T12:24:08;23.70;49.30
45008;DHT22;30743;52.008;5.644;2024-01-10T12:26:33;23.30;49.80
45008;DHT22;30743;52.008;5.644;2024-01-10T12:29:00;23.20;49.90
45008;DHT22;30743;52.008;5.644;2024-01-10T12:31:29;22.10;50.00
45008;DHT22;30743;52.008;5.644;2024-01-10T12:33:54;21.80;50.20
45008;DHT22;30743;52.008;5.644;2024-01-10T12:36:20;21.50;51.00
45008;DHT22;30743;52.008;5.644;2024-01-10T12:38:47;21.10;50.40
45008;DHT22;30743;52.008;5.644;2024-01-10T12:41:15;20.20;50.80
45008;DHT22;30743;52.008;5.644;2024-01-10T12:43:41;18.90;52.20
45008;DHT22;30743;52.008;5.644;2024-01-10T12:46:07;18.80;53.30
45008;DHT22;30743;52.008;5.644;2024-01-10T12:48:36;19.20;52.80
45008;DHT22;30743;52.008;5.644;2024-01-10T12:51:09;18.80;52.70
45008;DHT22;30743;52.008;5.644;2024-01-10T12:53:41;19.40;53.00
45008;DHT22;30743;52.008;5.644;2024-01-10T12:56:08;19.50;52.90
45008;DHT22;30743;52.008;5.644;2024-01-10T12:58:35;18.90;53.10
45008;DHT22;30743;52.008;5.644;2024-01-10T13:01:02;20.30;53.90
45008;DHT22;30743;52.008;5.644;2024-01-10T13:03:31;18.70;52.80
45008;DHT22;30743;52.008;5.644;2024-01-10T13:05:56;18.10;53.40
45008;DHT22;30743;52.008;5.644;2024-01-10T13:08:22;17.60;53.80
45008;DHT22;30743;52.008;5.644;2024-01-10T13:10:48;16.80;54.50
45008;DHT22;30743;52.008;5.644;2024-01-10T13:13:14;16.20;55.80
45008;DHT22;30743;52.008;5.644;2024-01-10T13:15:41;17.30;55.60
45008;DHT22;30743;52.008;5.644;2024-01-10T13:18:08;17.40;54.50
45008;DHT22;30743;52.008;5.644;2024-01-10T13:20:35;18.20;54.50
45008;DHT22;30743;52.008;5.644;2024-01-10T13:23:01;18.20;53.80
45008;DHT22;30743;52.008;5.644;2024-01-10T13:25:27;17.80;54.20
45008;DHT22;30743;52.008;5.644;2024-01-10T13:27:53;18.10;54.30
45008;DHT22;30743;52.008;5.644;2024-01-10T13:30:19;17.40;54.90
45008;DHT22;30743;52.008;5.644;2024-01-10T13:32:48;17.50;54.90
45008;DHT22;30743;52.008;5.644;2024-01-10T13:35:13;18.30;54.70
45008;DHT22;30743;52.008;5.644;2024-01-10T13:37:40;17.30;54.40
45008;DHT22;30743;52.008;5.644;2024-01-10T13:40:11;16.90;55.20
45008;DHT22;30743;52.008;5.644;2024-01-10T13:42:40;16.60;55.30
45008;DHT22;30743;52.008;5.644;2024-01-10T13:45:07;17.10;56.20
45008;DHT22;30743;52.008;5.644;2024-01-10T13:47:39;16.80;54.80
45008;DHT22;30743;52.008;5.644;2024-01-10T13:50:07;16.00;56.10
45008;DHT22;30743;52.008;5.644;2024-01-10T13:52:34;15.20;56.10
45008;DHT22;30743;52.008;5.644;2024-01-10T13:55:00;14.50;57.10
45008;DHT22;30743;52.008;5.644;2024-01-10T13:57:26;13.80;57.70
45008;DHT22;30743;52.008;5.644;2024-01-10T13:59:52;13.70;58.30
45008;DHT22;30743;52.008;5.644;2024-01-10T14:02:24;13.60;58.50
45008;DHT22;30743;52.008;5.644;2024-01-10T14:04:50;14.40;60.40
45008;DHT22;30743;52.008;5.644;2024-01-10T14:07:16;15.30;61.00
45008;DHT22;30743;52.008;5.644;2024-01-10T14:09:41;16.00;59.20
45008;DHT22;30743;52.008;5.644;2024-01-10T14:12:07;16.90;58.90
45008;DHT22;30743;52.008;5.644;2024-01-10T14:14:32;17.20;58.10
45008;DHT22;30743;52.008;5.644;2024-01-10T14:16:58;18.50;58.10
45008;DHT22;30743;52.008;5.644;2024-01-10T14:19:24;18.10;57.10
45008;DHT22;30743;52.008;5.644;2024-01-10T14:21:49;18.30;57.80
45008;DHT22;30743;52.008;5.644;2024-01-10T14:24:15;18.60;56.70
45008;DHT22;30743;52.008;5.644;2024-01-10T14:26:41;18.70;57.50
45008;DHT22;30743;52.008;5.644;2024-01-10T14:29:07;18.90;57.20
45008;DHT22;30743;52.008;5.644;2024-01-10T14:31:33;19.00;56.30
45008;DHT22;30743;52.008;5.644;2024-01-10T14:33:58;19.00;55.80
45008;DHT22;30743;52.008;5.644;2024-01-10T14:36:25;19.00;56.60
45008;DHT22;30743;52.008;5.644;2024-01-10T14:38:50;18.90;56.90
45008;DHT22;30743;52.008;5.644;2024-01-10T14:41:16;18.80;56.80
45008;DHT22;30743;52.008;5.644;2024-01-10T14:43:42;18.80;56.10
45008;DHT22;30743;52.008;5.644;2024-01-10T14:46:07;18.80;56.30
45008;DHT22;30743;52.008;5.644;2024-01-10T14:48:33;18.90;56.30
45008;DHT22;30743;52.008;5.644;2024-01-10T14:50:59;18.90;56.00
45008;DHT22;30743;52.008;5.644;2024-01-10T14:53:30;18.80;57.00
45008;DHT22;30743;52.008;5.644;2024-01-10T14:55:55;18.80;57.00
45008;DHT22;30743;52.008;5.644;2024-01-10T14:58:21;18.70;57.10
45008;DHT22;30743;52.008;5.644;2024-01-10T15:00:47;18.70;56.60
45008;DHT22;30743;52.008;5.644;2024-01-10T15:03:13;18.80;56.60
45008;DHT22;30743;52.008;5.644;2024-01-10T15:05:41;19.00;56.40
45008;DHT22;30743;52.008;5.644;2024-01-10T15:08:07;19.10;57.90
45008;DHT22;30743;52.008;5.644;2024-01-10T15:10:36;18.80;57.00
45008;DHT22;30743;52.008;5.644;2024-01-10T15:13:01;18.70;57.40
45008;DHT22;30743;52.008;5.644;2024-01-10T15:15:27;18.80;56.40
45008;DHT22;30743;52.008;5.644;2024-01-10T15:17:53;18.80;56.20
45008;DHT22;30743;52.008;5.644;2024-01-10T15:20:18;18.80;56.20
45008;DHT22;30743;52.008;5.644;2024-01-10T15:22:44;18.70;56.80
45008;DHT22;30743;52.008;5.644;2024-01-10T15:25:09;18.70;56.30
45008;DHT22;30743;52.008;5.644;2024-01-10T15:27:36;18.50;56.60
45008;DHT22;30743;52.008;5.644;2024-01-10T15:30:02;18.30;55.80
45008;DHT22;30743;52.008;5.644;2024-01-10T15:32:30;18.10;56.10
45008;DHT22;30743;52.008;5.644;2024-01-10T15:34:55;18.00;56.70
45008;DHT22;30743;52.008;5.644;2024-01-10T15:37:21;17.90;57.00
45008;DHT22;30743;52.008;5.644;2024-01-10T15:39:46;18.30;57.70
45008;DHT22;30743;52.008;5.644;2024-01-10T15:42:12;18.70;58.00
45008;DHT22;30743;52.008;5.644;2024-01-10T15:44:39;17.20;57.70
45008;DHT22;30743;52.008;5.644;2024-01-10T15:47:09;16.90;57.60
45008;DHT22;30743;52.008;5.644;2024-01-10T15:49:35;16.60;58.00